createdAt,value
2023-05-01T00:01:26.352Z,99.90
2023-05-01T00:04:28.263Z,99.90
2023-05-01T00:07:31.090Z,99.90
2023-05-01T00:10:36.287Z,99.90
2023-05-01T00:13:38.491Z,99.90
2023-05-01T00:16:40.303Z,99.90
2023-05-01T00:19:42.377Z,99.90
2023-05-01T00:22:44.092Z,99.90
2023-05-01T00:25:45.802Z,99.90
2023-05-01T00:28:47.516Z,99.90
2023-05-01T00:31:49.354Z,99.90
2023-05-01T00:34:51.468Z,99.90
2023-05-01T00:37:53.362Z,99.90
2023-05-01T00:40:55.152Z,99.90
2023-05-01T00:43:57.847Z,99.90
2023-05-01T00:47:00.901Z,99.90
2023-05-01T00:50:03.913Z,99.90
2023-05-01T00:53:06.035Z,99.90
2023-05-01T00:56:08.613Z,99.90
2023-05-01T00:59:10.698Z,99.90
2023-05-01T01:02:15.228Z,99.90
2023-05-01T01:05:17.093Z,99.90
2023-05-01T01:08:30.699Z,99.90
2023-05-01T01:11:42.415Z,99.90
2023-05-01T01:15:27.100Z,99.90
2023-05-01T01:18:48.459Z,99.90
2023-05-01T01:21:55.275Z,99.90
2023-05-01T01:25:34.323Z,99.90
2023-05-01T01:28:54.215Z,99.90
2023-05-01T01:32:19.511Z,99.90
2023-05-01T01:35:26.430Z,99.90
2023-05-01T01:38:43.582Z,99.90
2023-05-01T01:41:51.073Z,99.90
2023-05-01T01:44:55.787Z,99.90
2023-05-01T01:47:57.597Z,99.90
2023-05-01T01:51:00.957Z,99.90
2023-05-01T01:54:04.766Z,99.90
2023-05-01T01:57:08.406Z,99.90
2023-05-01T02:00:12.621Z,99.90
2023-05-01T02:03:24.203Z,99.90
2023-05-01T02:06:26.799Z,99.90
2023-05-01T02:09:30.286Z,99.90
2023-05-01T02:12:33.169Z,99.90
2023-05-01T02:15:40.707Z,99.90
2023-05-01T02:18:44.717Z,99.90
2023-05-01T02:21:48.379Z,99.90
2023-05-01T02:24:50.572Z,99.90
2023-05-01T02:28:07.868Z,99.90
2023-05-01T02:31:10.398Z,99.90
2023-05-01T02:34:12.397Z,99.90
2023-05-01T02:37:14.312Z,99.90
2023-05-01T02:40:18.898Z,99.90
2023-05-01T02:43:22.853Z,99.90
2023-05-01T02:46:29.272Z,99.90
2023-05-01T02:49:32.468Z,99.90
2023-05-01T02:52:35.092Z,99.90
2023-05-01T02:55:59.374Z,99.90
2023-05-01T02:59:01.402Z,99.90
2023-05-01T03:02:03.826Z,99.90
2023-05-01T03:05:06.310Z,99.90
2023-05-01T03:08:08.288Z,99.90
2023-05-01T03:11:10.135Z,99.90
2023-05-01T03:14:14.880Z,99.90
2023-05-01T03:17:16.869Z,99.90
2023-05-01T03:20:18.636Z,99.90
2023-05-01T03:23:21.257Z,99.90
2023-05-01T03:26:23.294Z,99.90
2023-05-01T03:29:26.003Z,99.90
2023-05-01T03:32:29.713Z,99.90
2023-05-01T03:35:32.619Z,99.90
2023-05-01T03:38:36.699Z,99.90
2023-05-01T03:41:44.619Z,99.90
2023-05-01T03:44:55.755Z,99.90
2023-05-01T03:47:58.743Z,99.90
2023-05-01T03:51:00.651Z,99.90
2023-05-01T03:54:03.360Z,99.90
2023-05-01T03:57:12.701Z,99.90
2023-05-01T04:00:14.968Z,99.90
2023-05-01T04:03:21.997Z,99.90
2023-05-01T04:06:27.302Z,99.90
2023-05-01T04:09:30.066Z,99.90
2023-05-01T04:12:33.273Z,99.90
2023-05-01T04:15:35.391Z,99.90
2023-05-01T04:18:37.750Z,99.90
2023-05-01T04:21:39.456Z,99.90
2023-05-01T04:24:41.409Z,99.90
2023-05-01T04:27:43.664Z,99.90
2023-05-01T04:30:46.703Z,99.90
2023-05-01T04:33:48.919Z,99.90
2023-05-01T04:36:52.088Z,99.90
2023-05-01T04:39:55.680Z,99.90
2023-05-01T04:42:58.988Z,99.90
2023-05-01T04:46:01.210Z,99.90
2023-05-01T04:49:03.070Z,99.90
2023-05-01T04:52:04.926Z,99.90
2023-05-01T04:55:19.150Z,99.90
2023-05-01T04:58:44.469Z,99.90
2023-05-01T05:01:50.657Z,99.90
2023-05-01T05:04:54.156Z,99.90
2023-05-01T05:07:56.261Z,99.90
2023-05-01T05:11:10.870Z,99.90
2023-05-01T05:14:33.434Z,99.90
2023-05-01T05:17:35.743Z,99.90
2023-05-01T05:20:40.877Z,99.90
2023-05-01T05:23:43.361Z,99.90
2023-05-01T05:26:45.420Z,99.90
2023-05-01T05:29:47.490Z,99.90
2023-05-01T05:32:49.827Z,99.90
2023-05-01T05:35:52.635Z,99.90
2023-05-01T05:38:59.200Z,99.90
2023-05-01T05:42:03.840Z,99.90
2023-05-01T05:45:07.306Z,99.90
2023-05-01T05:48:09.633Z,99.90
2023-05-01T05:51:14.592Z,99.90
2023-05-01T05:54:16.792Z,99.90
2023-05-01T05:57:20.588Z,99.90
2023-05-01T06:00:25.462Z,99.90
2023-05-01T06:03:27.952Z,99.90
2023-05-01T06:06:34.721Z,99.90
2023-05-01T06:09:37.448Z,99.90
2023-05-01T06:12:41.672Z,99.90
2023-05-01T06:15:54.438Z,99.90
2023-05-01T06:18:56.401Z,99.90
2023-05-01T06:21:58.528Z,99.90
2023-05-01T06:25:01.645Z,99.90
2023-05-01T06:28:05.735Z,99.90
2023-05-01T06:31:09.218Z,99.90
2023-05-01T06:34:16.263Z,99.90
2023-05-01T06:37:25.912Z,99.90
2023-05-01T06:40:27.918Z,99.90
2023-05-01T06:43:31.162Z,99.90
2023-05-01T06:46:33.349Z,99.90
2023-05-01T06:49:35.923Z,99.90
2023-05-01T06:52:37.696Z,99.90
2023-05-01T06:55:41.028Z,99.90
2023-05-01T06:58:43.090Z,99.90
2023-05-01T07:01:45.393Z,99.90
2023-05-01T07:04:47.182Z,99.90
2023-05-01T07:07:57.936Z,99.90
2023-05-01T07:11:03.150Z,99.90
2023-05-01T07:14:05.018Z,99.90
2023-05-01T07:17:07.166Z,99.90
2023-05-01T07:20:10.375Z,99.90
2023-05-01T07:23:12.386Z,99.90
2023-05-01T07:26:14.430Z,99.90
2023-05-01T07:29:16.816Z,99.90
2023-05-01T07:32:18.617Z,99.90
2023-05-01T07:35:20.630Z,99.90
2023-05-01T07:38:22.396Z,99.90
2023-05-01T07:41:25.601Z,99.90
2023-05-01T07:44:27.700Z,99.90
2023-05-01T07:47:30.151Z,99.90
2023-05-01T07:50:32.750Z,99.90
2023-05-01T07:53:34.889Z,99.90
2023-05-01T07:56:36.614Z,99.90
2023-05-01T07:59:38.385Z,99.90
2023-05-01T08:02:41.531Z,99.90
2023-05-01T08:05:43.657Z,99.90
2023-05-01T08:08:45.537Z,99.90
2023-05-01T08:11:47.482Z,99.90
2023-05-01T08:14:49.477Z,99.90
2023-05-01T08:17:51.863Z,99.90
2023-05-01T08:20:53.654Z,99.90
2023-05-01T08:23:56.587Z,99.90
2023-05-01T08:26:58.460Z,99.90
2023-05-01T08:33:15.159Z,99.90
2023-05-01T08:36:17.281Z,99.90
2023-05-01T08:39:19.916Z,99.90
2023-05-01T08:42:21.713Z,99.90
2023-05-01T08:45:25.426Z,99.90
2023-05-01T08:48:29.362Z,99.90
2023-05-01T08:51:33.265Z,99.90
2023-05-01T08:54:36.692Z,99.90
2023-05-01T08:57:39.341Z,99.90
2023-05-01T09:00:42.781Z,99.90
2023-05-01T09:03:45.741Z,99.90
2023-05-01T09:06:47.591Z,99.40
2023-05-01T09:09:49.353Z,99.50
2023-05-01T09:13:00.769Z,98.10
2023-05-01T09:16:04.470Z,98.20
2023-05-01T09:19:06.215Z,97.80
2023-05-01T09:22:09.482Z,99.90
2023-05-01T09:25:11.657Z,96.30
2023-05-01T09:28:13.352Z,99.70
2023-05-01T09:31:29.632Z,97.10
2023-05-01T09:34:31.557Z,97.00
2023-05-01T09:37:34.849Z,99.90
2023-05-01T09:40:36.724Z,96.10
2023-05-01T09:43:39.121Z,95.00
2023-05-01T09:46:44.405Z,99.90
2023-05-01T09:49:50.186Z,97.00
2023-05-01T09:52:52.651Z,99.30
2023-05-01T09:56:01.621Z,98.10
2023-05-01T09:59:16.508Z,93.40
2023-05-01T10:02:30.725Z,94.00
2023-05-01T10:05:44.251Z,91.90
2023-05-01T10:08:47.541Z,94.00
2023-05-01T10:11:55.773Z,92.40
2023-05-01T10:14:57.845Z,96.70
2023-05-01T10:18:00.021Z,97.30
2023-05-01T10:21:03.020Z,93.20
2023-05-01T10:24:05.852Z,90.90
2023-05-01T10:27:08.597Z,93.00
2023-05-01T10:30:10.864Z,95.00
2023-05-01T10:33:15.762Z,92.50
2023-05-01T10:36:43.482Z,85.00
2023-05-01T10:39:45.257Z,91.80
2023-05-01T10:43:16.096Z,78.30
2023-05-01T10:46:20.962Z,76.30
2023-05-01T10:49:22.863Z,85.40
2023-05-01T10:52:24.587Z,82.30
2023-05-01T10:55:36.779Z,74.60
2023-05-01T10:58:38.589Z,79.80
2023-05-01T11:01:48.559Z,76.20
2023-05-01T11:04:51.693Z,69.70
2023-05-01T11:08:31.550Z,63.80
2023-05-01T11:11:33.232Z,68.80
2023-05-01T11:14:53.728Z,70.80
2023-05-01T11:17:56.181Z,75.50
2023-05-01T11:20:58.241Z,68.90
2023-05-01T11:24:09.522Z,69.70
2023-05-01T11:27:13.679Z,72.90
2023-05-01T11:30:16.211Z,69.30
2023-05-01T11:33:23.295Z,69.50
2023-05-01T11:36:26.933Z,59.80
2023-05-01T11:39:29.017Z,58.00
2023-05-01T11:42:30.803Z,54.90
2023-05-01T11:45:34.841Z,53.50
2023-05-01T11:48:37.109Z,56.90
2023-05-01T11:51:39.005Z,54.10
2023-05-01T11:54:49.788Z,53.30
2023-05-01T11:57:53.410Z,53.90
2023-05-01T12:00:55.184Z,55.40
2023-05-01T12:03:57.384Z,54.80
2023-05-01T12:06:59.430Z,64.00
2023-05-01T12:10:01.310Z,55.40
2023-05-01T12:13:08.073Z,55.10
2023-05-01T12:16:10.689Z,56.70
2023-05-01T12:19:15.919Z,57.50
2023-05-01T12:22:18.334Z,61.00
2023-05-01T12:25:20.090Z,59.00
2023-05-01T12:28:22.100Z,58.00
2023-05-01T12:31:25.375Z,58.60
2023-05-01T12:34:33.288Z,58.00
2023-05-01T12:37:35.270Z,66.20
2023-05-01T12:40:37.991Z,73.70
2023-05-01T12:43:39.779Z,80.60
2023-05-01T12:46:42.314Z,79.80
2023-05-01T12:49:44.200Z,81.30
2023-05-01T12:52:46.112Z,86.80
2023-05-01T12:55:50.379Z,73.80
2023-05-01T12:58:53.554Z,73.40
2023-05-01T13:02:03.577Z,72.80
2023-05-01T13:05:07.680Z,69.90
2023-05-01T13:08:09.425Z,68.90
2023-05-01T13:11:16.144Z,69.40
2023-05-01T13:14:17.967Z,74.10
2023-05-01T13:17:31.349Z,73.70
2023-05-01T13:20:33.225Z,74.20
2023-05-01T13:23:36.336Z,84.10
2023-05-01T13:26:38.231Z,86.20
2023-05-01T13:29:45.486Z,79.60
2023-05-01T13:32:47.673Z,69.40
2023-05-01T13:35:49.430Z,71.10
2023-05-01T13:38:54.089Z,77.20
2023-05-01T13:41:55.997Z,71.20
2023-05-01T13:44:58.122Z,73.80
2023-05-01T13:48:00.154Z,71.20
2023-05-01T13:51:02.011Z,62.30
2023-05-01T13:54:04.463Z,63.60
2023-05-01T13:57:06.255Z,53.00
2023-05-01T14:00:10.637Z,56.70
2023-05-01T14:03:16.292Z,52.40
2023-05-01T14:06:19.918Z,57.80
2023-05-01T14:09:22.016Z,59.60
2023-05-01T14:12:33.960Z,62.20
2023-05-01T14:15:35.999Z,57.30
2023-05-01T14:18:48.235Z,57.10
2023-05-01T14:21:49.979Z,56.60
2023-05-01T14:24:51.755Z,59.50
2023-05-01T14:27:54.969Z,61.30
2023-05-01T14:30:56.762Z,67.90
2023-05-01T14:34:01.138Z,78.50
2023-05-01T14:37:02.845Z,71.70
2023-05-01T14:40:13.765Z,73.00
2023-05-01T14:43:20.076Z,72.70
2023-05-01T14:46:33.307Z,68.70
2023-05-01T14:49:35.740Z,73.10
2023-05-01T14:52:39.151Z,68.60
2023-05-01T14:55:41.821Z,73.70
2023-05-01T14:58:43.588Z,87.80
2023-05-01T15:01:45.474Z,83.60
2023-05-01T15:04:47.350Z,79.50
2023-05-01T15:07:49.186Z,84.20
2023-05-01T15:10:52.832Z,82.80
2023-05-01T15:13:54.716Z,92.90
2023-05-01T15:16:56.519Z,99.90
2023-05-01T15:19:58.317Z,99.90
2023-05-01T15:23:00.015Z,99.90
2023-05-01T15:26:01.831Z,99.90
2023-05-01T15:29:03.566Z,99.90
2023-05-01T15:32:12.392Z,99.90
2023-05-01T15:35:14.735Z,99.90
2023-05-01T15:38:16.807Z,99.90
2023-05-01T15:41:19.281Z,99.90
2023-05-01T15:44:21.129Z,99.90
2023-05-01T15:47:22.982Z,99.90
2023-05-01T15:50:24.728Z,99.90
2023-05-01T15:53:26.450Z,99.90
2023-05-01T15:56:28.842Z,99.90
2023-05-01T15:59:30.788Z,99.90
2023-05-01T16:02:32.748Z,99.90
2023-05-01T16:05:37.130Z,99.90
2023-05-01T16:08:39.271Z,99.90
2023-05-01T16:11:41.012Z,99.90
2023-05-01T16:14:42.845Z,99.90
2023-05-01T16:17:46.374Z,99.90
2023-05-01T16:20:48.267Z,99.90
2023-05-01T16:23:51.566Z,99.90
2023-05-01T16:26:53.353Z,99.90
2023-05-01T16:29:55.184Z,99.90
2023-05-01T16:32:56.987Z,99.90
2023-05-01T16:35:59.562Z,99.90
2023-05-01T16:39:01.299Z,99.90
2023-05-01T16:42:03.178Z,99.90
2023-05-01T16:45:08.563Z,99.90
2023-05-01T16:48:10.662Z,99.90
2023-05-01T16:51:12.367Z,99.90
2023-05-01T16:54:14.957Z,99.90
2023-05-01T16:57:17.149Z,99.90
2023-05-01T17:00:19.569Z,99.90
2023-05-01T17:03:21.259Z,99.90
2023-05-01T17:06:23.020Z,99.90
2023-05-01T17:09:24.781Z,99.90
2023-05-01T17:12:30.565Z,99.90
2023-05-01T17:15:32.534Z,99.90
2023-05-01T17:18:34.545Z,99.90
2023-05-01T17:21:36.249Z,99.90
2023-05-01T17:24:38.227Z,99.90
2023-05-01T17:27:40.072Z,99.90
2023-05-01T17:30:41.763Z,99.90
2023-05-01T17:33:43.481Z,99.90
2023-05-01T17:36:45.426Z,99.90
2023-05-01T17:39:47.104Z,99.90
2023-05-01T17:42:48.862Z,99.90
2023-05-01T17:45:50.603Z,99.90
2023-05-01T17:48:52.541Z,99.90
2023-05-01T17:51:54.258Z,99.90
2023-05-01T17:54:56.001Z,99.90
2023-05-01T17:57:57.813Z,99.90
2023-05-01T18:00:59.532Z,99.90
2023-05-01T18:04:01.427Z,99.90
2023-05-01T18:07:03.544Z,99.90
2023-05-01T18:10:05.737Z,99.90
2023-05-01T18:13:07.519Z,99.90
2023-05-01T18:16:09.908Z,99.90
2023-05-01T18:19:12.841Z,99.90
2023-05-01T18:22:14.892Z,99.90
2023-05-01T18:25:17.147Z,99.90
2023-05-01T18:28:19.086Z,99.90
2023-05-01T18:31:20.930Z,99.90
2023-05-01T18:34:22.657Z,99.90
2023-05-01T18:37:25.807Z,99.90
2023-05-01T18:40:27.695Z,99.90
2023-05-01T18:43:29.377Z,99.90
2023-05-01T18:46:31.159Z,99.90
2023-05-01T18:49:32.883Z,99.90
2023-05-01T18:52:36.890Z,99.90
2023-05-01T18:55:38.585Z,99.90
2023-05-01T18:58:40.263Z,99.90
2023-05-01T19:01:41.996Z,99.90
2023-05-01T19:04:56.592Z,99.90
2023-05-01T19:08:01.789Z,99.90
2023-05-01T19:11:04.813Z,99.90
2023-05-01T19:14:06.499Z,99.90
2023-05-01T19:17:08.498Z,99.90
2023-05-01T19:20:10.535Z,99.90
2023-05-01T19:23:12.374Z,99.90
2023-05-01T19:26:14.169Z,99.90
2023-05-01T19:29:15.828Z,99.90
2023-05-01T19:32:17.980Z,99.90
2023-05-01T19:35:19.684Z,99.90
2023-05-01T19:38:21.730Z,99.90
2023-05-01T19:41:23.454Z,99.90
2023-05-01T19:44:25.522Z,99.90
2023-05-01T19:47:27.304Z,99.90
2023-05-01T19:50:28.986Z,99.90
2023-05-01T19:53:31.200Z,99.90
2023-05-01T19:56:32.945Z,99.90
2023-05-01T19:59:38.624Z,99.90
2023-05-01T20:02:41.493Z,99.90
2023-05-01T20:05:43.344Z,99.90
2023-05-01T20:08:45.035Z,99.90
2023-05-01T20:11:46.726Z,99.90
2023-05-01T20:14:48.852Z,99.90
2023-05-01T20:17:50.601Z,99.90
2023-05-01T20:20:52.302Z,99.90
2023-05-01T20:23:54.907Z,99.90
2023-05-01T20:26:59.263Z,99.90
2023-05-01T20:30:01.534Z,99.90
2023-05-01T20:33:03.555Z,99.90
2023-05-01T20:36:06.573Z,99.90
2023-05-01T20:39:08.279Z,99.90
2023-05-01T20:42:10.038Z,99.90
2023-05-01T20:45:11.918Z,99.90
2023-05-01T20:48:13.647Z,99.90
2023-05-01T20:51:18.196Z,99.90
2023-05-01T20:54:19.852Z,99.90
2023-05-01T20:57:21.732Z,99.90
2023-05-01T21:00:23.424Z,99.90
2023-05-01T21:03:25.192Z,99.90
2023-05-01T21:06:27.210Z,99.90
2023-05-01T21:09:28.931Z,99.90
2023-05-01T21:12:30.606Z,99.90
2023-05-01T21:15:33.774Z,99.90
2023-05-01T21:18:36.229Z,99.90
2023-05-01T21:21:38.917Z,99.90
2023-05-01T21:24:43.943Z,99.90
2023-05-01T21:27:45.791Z,99.90
2023-05-01T21:30:49.283Z,99.90
2023-05-01T21:33:51.036Z,99.90
2023-05-01T21:36:52.921Z,99.90
2023-05-01T21:39:56.840Z,99.90
2023-05-01T21:43:00.261Z,99.90
2023-05-01T21:46:02.647Z,99.90
2023-05-01T21:49:04.605Z,99.90
2023-05-01T21:52:08.732Z,99.90
2023-05-01T21:55:17.268Z,99.90
2023-05-01T21:58:19.033Z,99.90
2023-05-01T22:01:22.140Z,99.90
2023-05-01T22:04:23.892Z,99.90
2023-05-01T22:07:25.719Z,99.90
2023-05-01T22:10:27.493Z,99.90
2023-05-01T22:13:33.239Z,99.90
2023-05-01T22:16:35.015Z,99.90
2023-05-01T22:19:37.784Z,99.90
2023-05-01T22:22:41.379Z,99.90
2023-05-01T22:25:43.021Z,99.90
2023-05-01T22:28:45.276Z,99.90
2023-05-01T22:31:46.953Z,99.90
2023-05-01T22:34:48.689Z,99.90
2023-05-01T22:37:50.445Z,99.90
2023-05-01T22:40:52.198Z,99.90
2023-05-01T22:43:53.986Z,99.90
2023-05-01T22:46:55.846Z,99.90
2023-05-01T22:49:57.788Z,99.90
2023-05-01T22:53:00.338Z,99.90
2023-05-01T22:56:02.046Z,99.90
2023-05-01T22:59:03.726Z,99.90
2023-05-01T23:02:05.498Z,99.90
2023-05-01T23:05:08.162Z,99.90
2023-05-01T23:08:10.043Z,99.90
2023-05-01T23:11:15.497Z,99.90
2023-05-01T23:14:18.156Z,99.90
2023-05-01T23:17:19.942Z,99.90
2023-05-01T23:20:23.813Z,99.90
2023-05-01T23:23:30.860Z,99.90
2023-05-01T23:26:32.971Z,99.90
2023-05-01T23:29:35.054Z,99.90
2023-05-01T23:32:40.080Z,99.90
2023-05-01T23:35:41.807Z,99.90
2023-05-01T23:38:43.599Z,99.90
2023-05-01T23:41:45.381Z,99.90
2023-05-01T23:44:47.277Z,99.90
2023-05-01T23:47:48.998Z,99.90
2023-05-01T23:50:50.916Z,99.90
2023-05-01T23:53:52.618Z,99.90
2023-05-01T23:56:54.459Z,99.90
2023-05-01T23:59:56.570Z,99.90
